sensor_id;sensor_type;location;lat;lon;timestamp;temperature;humidity
40249;DHT22;25969;49.970;11.062;2023-04-06T04:07:11;-2.50;95.60
40249;DHT22;25969;49.970;11.062;2023-04-06T04:17:12;-2.40;96.80
40249;DHT22;25969;49.970;11.062;2023-04-06T04:27:13;-1.80;95.20
40249;DHT22;25969;49.970;11.062;2023-04-06T04:37:15;-2.10;94.40
40249;DHT22;25969;49.970;11.062;2023-04-06T04:47:22;-2.10;95.50
40249;DHT22;25969;49.970;11.062;2023-04-06T04:57:23;-2.40;96.10
40249;DHT22;25969;49.970;11.062;2023-04-06T05:07:24;-2.10;95.50
40249;DHT22;25969;49.970;11.062;2023-04-06T05:17:28;-2.10;96.00
40249;DHT22;25969;49.970;11.062;2023-04-06T05:27:29;-2.00;97.40
40249;DHT22;25969;49.970;11.062;2023-04-06T05:37:31;-1.70;95.90
40249;DHT22;25969;49.970;11.062;2023-04-06T05:47:33;-1.50;94.90
40249;DHT22;25969;49.970;11.062;2023-04-06T05:57:42;-0.80;93.80
40249;DHT22;25969;49.970;11.062;2023-04-06T06:07:44;-0.60;94.30
40249;DHT22;25969;49.970;11.062;2023-04-06T06:17:45;-0.60;94.10
40249;DHT22;25969;49.970;11.062;2023-04-06T06:27:46;0.00;94.60
40249;DHT22;25969;49.970;11.062;2023-04-06T06:37:50;0.50;93.90
40249;DHT22;25969;49.970;11.062;2023-04-06T06:47:54;1.10;91.50
40249;DHT22;25969;49.970;11.062;2023-04-06T06:57:55;1.90;87.60
40249;DHT22;25969;49.970;11.062;2023-04-06T07:07:56;2.60;88.10
40249;DHT22;25969;49.970;11.062;2023-04-06T07:17:57;3.30;82.40
40249;DHT22;25969;49.970;11.062;2023-04-06T07:28:01;3.90;77.80
40249;DHT22;25969;49.970;11.062;2023-04-06T07:38:02;4.70;76.30
40249;DHT22;25969;49.970;11.062;2023-04-06T07:48:03;5.40;71.20
40249;DHT22;25969;49.970;11.062;2023-04-06T07:58:05;6.10;73.50
40249;DHT22;25969;49.970;11.062;2023-04-06T08:08:06;7.40;67.30
40249;DHT22;25969;49.970;11.062;2023-04-06T08:18:08;8.80;61.50
40249;DHT22;25969;49.970;11.062;2023-04-06T08:28:09;9.50;57.50
40249;DHT22;25969;49.970;11.062;2023-04-06T08:38:09;10.00;59.30
40249;DHT22;25969;49.970;11.062;2023-04-06T08:48:11;11.00;56.30
40249;DHT22;25969;49.970;11.062;2023-04-06T08:58:12;12.00;49.40
40249;DHT22;25969;49.970;11.062;2023-04-06T09:08:14;13.50;47.70
40249;DHT22;25969;49.970;11.062;2023-04-06T09:18:28;15.70;43.60
40249;DHT22;25969;49.970;11.062;2023-04-06T09:28:29;18.20;33.40
40249;DHT22;25969;49.970;11.062;2023-04-06T09:38:30;20.30;29.90
40249;DHT22;25969;49.970;11.062;2023-04-06T09:48:31;21.40;28.50
40249;DHT22;25969;49.970;11.062;2023-04-06T09:58:36;21.00;27.90
40249;DHT22;25969;49.970;11.062;2023-04-06T10:08:38;23.50;26.10
40249;DHT22;25969;49.970;11.062;2023-04-06T10:18:46;22.40;25.90
40249;DHT22;25969;49.970;11.062;2023-04-06T10:28:50;22.20;25.80
40249;DHT22;25969;49.970;11.062;2023-04-06T10:38:59;23.10;23.70
40249;DHT22;25969;49.970;11.062;2023-04-06T10:49:12;24.80;25.00
40249;DHT22;25969;49.970;11.062;2023-04-06T10:59:14;24.70;25.60
40249;DHT22;25969;49.970;11.062;2023-04-06T11:09:26;24.00;25.40
40249;DHT22;25969;49.970;11.062;2023-04-06T11:19:26;25.50;24.90
40249;DHT22;25969;49.970;11.062;2023-04-06T11:29:29;22.30;26.80
40249;DHT22;25969;49.970;11.062;2023-04-06T11:39:30;24.40;24.50
40249;DHT22;25969;49.970;11.062;2023-04-06T11:49:33;25.10;24.40
40249;DHT22;25969;49.970;11.062;2023-04-06T11:59:36;25.80;23.90
40249;DHT22;25969;49.970;11.062;2023-04-06T12:09:37;24.00;25.20
40249;DHT22;25969;49.970;11.062;2023-04-06T12:19:39;24.60;23.00
40249;DHT22;25969;49.970;11.062;2023-04-06T12:29:39;25.10;24.80
40249;DHT22;25969;49.970;11.062;2023-04-06T12:39:40;25.40;23.90
40249;DHT22;25969;49.970;11.062;2023-04-06T12:49:41;27.10;23.80
40249;DHT22;25969;49.970;11.062;2023-04-06T12:59:45;25.60;24.40
40249;DHT22;25969;49.970;11.062;2023-04-06T13:09:46;25.40;22.90
40249;DHT22;25969;49.970;11.062;2023-04-06T13:19:48;25.50;23.00
40249;DHT22;25969;49.970;11.062;2023-04-06T13:29:49;25.50;22.30
40249;DHT22;25969;49.970;11.062;2023-04-06T13:39:50;25.00;22.50
40249;DHT22;25969;49.970;11.062;2023-04-06T13:49:51;23.90;23.00
40249;DHT22;25969;49.970;11.062;2023-04-06T13:59:53;23.80;21.80
40249;DHT22;25969;49.970;11.062;2023-04-06T14:09:54;24.60;22.90
40249;DHT22;25969;49.970;11.062;2023-04-06T14:19:55;22.90;24.00
40249;DHT22;25969;49.970;11.062;2023-04-06T14:29:55;22.20;24.50
40249;DHT22;25969;49.970;11.062;2023-04-06T14:39:56;21.70;25.60
40249;DHT22;25969;49.970;11.062;2023-04-06T14:49:57;21.00;24.80
40249;DHT22;25969;49.970;11.062;2023-04-06T14:59:58;19.80;26.90
40249;DHT22;25969;49.970;11.062;2023-04-06T15:09:58;18.60;27.20
40249;DHT22;25969;49.970;11.062;2023-04-06T15:19:59;18.40;28.70
40249;DHT22;25969;49.970;11.062;2023-04-06T15:30:00;18.40;29.80
40249;DHT22;25969;49.970;11.062;2023-04-06T15:40:01;17.70;28.40
40249;DHT22;25969;49.970;11.062;2023-04-06T15:50:02;17.70;31.10
40249;DHT22;25969;49.970;11.062;2023-04-06T16:00:03;16.80;29.40
40249;DHT22;25969;49.970;11.062;2023-04-06T16:10:10;16.60;30.10
40249;DHT22;25969;49.970;11.062;2023-04-06T16:20:11;16.00;31.40
40249;DHT22;25969;49.970;11.062;2023-04-06T16:30:15;15.20;32.20
40249;DHT22;25969;49.970;11.062;2023-04-06T16:40:15;15.00;35.80
40249;DHT22;25969;49.970;11.062;2023-04-06T16:50:16;14.20;35.60
40249;DHT22;25969;49.970;11.062;2023-04-06T17:00:17;13.90;36.90
40249;DHT22;25969;49.970;11.062;2023-04-06T17:10:19;12.90;38.50
40249;DHT22;25969;49.970;11.062;2023-04-06T17:20:20;12.20;39.70
40249;DHT22;25969;49.970;11.062;2023-04-06T17:30:21;10.80;45.50
40249;DHT22;25969;49.970;11.062;2023-04-06T17:40:21;10.00;49.50
40249;DHT22;25969;49.970;11.062;2023-04-06T17:50:22;8.80;55.50
40249;DHT22;25969;49.970;11.062;2023-04-06T18:00:23;8.00;56.90
40249;DHT22;25969;49.970;11.062;2023-04-06T18:10:26;7.50;57.50
40249;DHT22;25969;49.970;11.062;2023-04-06T18:20:27;6.80;59.60
40249;DHT22;25969;49.970;11.062;2023-04-06T18:30:27;6.60;60.80
40249;DHT22;25969;49.970;11.062;2023-04-06T18:40:33;6.20;63.40
40249;DHT22;25969;49.970;11.062;2023-04-06T18:50:35;6.00;63.40
40249;DHT22;25969;49.970;11.062;2023-04-06T19:00:39;5.80;64.80
40249;DHT22;25969;49.970;11.062;2023-04-06T19:10:39;5.60;63.70
40249;DHT22;25969;49.970;11.062;2023-04-06T19:20:41;5.50;65.10
40249;DHT22;25969;49.970;11.062;2023-04-06T19:30:41;5.50;65.10
40249;DHT22;25969;49.970;11.062;2023-04-06T19:40:42;5.20;67.30
40249;DHT22;25969;49.970;11.062;2023-04-06T19:51:09;5.10;66.80
40249;DHT22;25969;49.970;11.062;2023-04-06T20:01:10;4.90;68.60
40249;DHT22;25969;49.970;11.062;2023-04-06T20:11:11;4.60;69.60
40249;DHT22;25969;49.970;11.062;2023-04-06T20:21:13;4.60;67.90
40249;DHT22;25969;49.970;11.062;2023-04-06T20:31:14;4.50;68.80
40249;DHT22;25969;49.970;11.062;2023-04-06T20:41:14;4.90;65.80
40249;DHT22;25969;49.970;11.062;2023-04-06T20:51:19;4.70;65.90
40249;DHT22;25969;49.970;11.062;2023-04-06T21:01:22;4.80;67.80
40249;DHT22;25969;49.970;11.062;2023-04-06T21:11:23;4.40;68.20
40249;DHT22;25969;49.970;11.062;2023-04-06T21:21:24;4.40;67.90
40249;DHT22;25969;49.970;11.062;2023-04-06T21:31:25;4.40;67.70
40249;DHT22;25969;49.970;11.062;2023-04-06T21:41:30;4.60;65.70
40249;DHT22;25969;49.970;11.062;2023-04-06T21:51:30;4.40;65.40
